HESH/SSH METAR and TAF weather

Enter ICAO airport designator
Station Type Date Time Source
HESH METAR 2020/09/19 02:00 UTC NOAA

HESH 190200Z 36011KT CAVOK 31/22 Q1007 NOSIG


Station Type Date Time Source
HESH Decoded METAR 2020/09/19 02:00 UTC NOAA

Sharm El Sheikhintl, Egypt (HESH) 27-58N 034-23E
Sep 18, 2020 - 10:00 PM EDT / 2020.09.19 0200 UTC
Wind: from the N (360 degrees) at 13 MPH (11 KT):0
Visibility: greater than 7 mile(s):0
Temperature: 87 F (31 C)
Heat index: 92.3 F (33.5 C):1
Dew Point: 71 F (22 C)
Relative Humidity: 58%
Pressure (altimeter): 29.74 in. Hg (1007 hPa)
ob: HESH 190200Z 36011KT CAVOK 31/22 Q1007 NOSIG
cycle: 2

Station Type Date Time Source
HESH TAF 2020/09/18 18:35 UTC NOAA

TAF HESH 181700Z 1818/1924 36015KT CAVOK

Example: see airport list